createdAt,value
2019-04-01T00:00:58.486Z,16.13
2019-04-01T00:05:02.719Z,15.47
2019-04-01T00:09:07.853Z,15.73
2019-04-01T00:13:12.042Z,15.47
2019-04-01T00:17:16.411Z,15.27
2019-04-01T00:21:20.800Z,17.83
2019-04-01T00:25:25.016Z,16.50
2019-04-01T00:29:29.237Z,16.73
2019-04-01T00:33:34.082Z,15.30
2019-04-01T00:37:38.313Z,14.87
2019-04-01T00:41:50.566Z,15.50
2019-04-01T00:45:55.812Z,13.57
2019-04-01T00:50:01.285Z,14.50
2019-04-01T00:54:05.794Z,12.83
2019-04-01T00:58:10.922Z,14.87
2019-04-01T01:02:36.316Z,15.90
2019-04-01T01:06:41.915Z,14.77
2019-04-01T01:10:47.874Z,13.43
2019-04-01T01:14:53.759Z,17.00
2019-04-01T01:18:58.507Z,14.47
2019-04-01T01:23:02.690Z,16.30
2019-04-01T01:27:08.443Z,14.43
2019-04-01T01:31:12.698Z,18.30
2019-04-01T01:35:17.820Z,12.97
2019-04-01T01:39:22.596Z,13.93
2019-04-01T01:43:27.577Z,13.83
2019-04-01T01:47:32.645Z,13.23
2019-04-01T01:51:37.457Z,14.57
2019-04-01T01:55:42.181Z,19.07
2019-04-01T01:59:46.532Z,15.30
2019-04-01T02:03:51.148Z,16.13
2019-04-01T02:07:55.469Z,13.43
2019-04-01T02:11:59.657Z,11.53
2019-04-01T02:16:04.275Z,13.07
2019-04-01T02:20:08.878Z,12.20
2019-04-01T02:24:13.314Z,12.87
2019-04-01T02:28:18.733Z,11.23
2019-04-01T02:32:24.053Z,9.90
2019-04-01T02:36:28.320Z,11.50
2019-04-01T02:40:33.364Z,11.30
2019-04-01T02:44:38.137Z,10.97
2019-04-01T02:48:42.348Z,9.23
2019-04-01T02:52:46.524Z,8.63
2019-04-01T02:56:51.055Z,10.77
2019-04-01T03:00:55.256Z,10.93
2019-04-01T03:05:00.488Z,9.90
2019-04-01T03:09:07.089Z,7.77
2019-04-01T03:13:11.386Z,10.27
2019-04-01T03:17:15.845Z,8.93
2019-04-01T03:21:20.040Z,9.00
2019-04-01T03:25:24.484Z,11.13
2019-04-01T03:29:29.521Z,10.10
2019-04-01T03:33:34.069Z,13.57
2019-04-01T03:37:38.354Z,8.40
2019-04-01T03:41:42.540Z,8.30
2019-04-01T03:45:47.237Z,7.53
2019-04-01T03:49:51.553Z,12.17
2019-04-01T03:53:55.744Z,7.00
2019-04-01T03:58:00.010Z,10.07
2019-04-01T04:02:04.711Z,9.23
2019-04-01T04:06:09.191Z,7.30
2019-04-01T04:10:13.427Z,8.30
2019-04-01T04:14:17.647Z,10.60
2019-04-01T04:18:21.918Z,7.73
2019-04-01T04:22:26.207Z,7.73
2019-04-01T04:26:30.654Z,5.70
2019-04-01T04:30:34.997Z,9.50
2019-04-01T04:34:39.304Z,7.53
2019-04-01T04:38:43.569Z,7.10
2019-04-01T04:42:47.875Z,7.87
2019-04-01T04:46:52.467Z,6.67
2019-04-01T04:50:56.697Z,8.70
2019-04-01T04:55:01.198Z,8.53
2019-04-01T04:59:05.464Z,10.63
2019-04-01T05:03:09.677Z,8.23
2019-04-01T05:07:13.942Z,9.40
2019-04-01T05:11:18.175Z,7.40
2019-04-01T05:15:22.675Z,8.17
2019-04-01T05:19:26.866Z,8.33
2019-04-01T05:23:31.595Z,9.13
2019-04-01T05:42:11.614Z,10.20
2019-04-01T05:46:15.823Z,9.77
2019-04-01T05:50:20.007Z,8.63
2019-04-01T05:54:24.320Z,7.33
2019-04-01T05:58:28.870Z,10.17
2019-04-01T06:02:33.121Z,8.20
2019-04-01T06:06:37.677Z,7.03
2019-04-01T06:10:42.201Z,9.03
2019-04-01T06:14:47.379Z,6.47
2019-04-01T06:18:51.590Z,9.57
2019-04-01T06:22:56.795Z,7.90
2019-04-01T06:27:01.625Z,7.83
2019-04-01T06:31:05.876Z,12.40
2019-04-01T06:35:10.455Z,10.27
2019-04-01T06:39:14.688Z,11.00
2019-04-01T06:43:19.331Z,12.03
2019-04-01T06:47:23.526Z,10.17
2019-04-01T06:51:27.966Z,8.87
2019-04-01T06:55:32.252Z,14.33
2019-04-01T06:59:36.620Z,10.60
2019-04-01T07:03:40.852Z,10.67
2019-04-01T07:07:45.085Z,12.57
2019-04-01T07:11:49.291Z,11.77
2019-04-01T07:15:53.724Z,11.30
2019-04-01T07:19:58.054Z,13.13
2019-04-01T07:24:02.382Z,13.10
2019-04-01T07:28:06.574Z,14.20
2019-04-01T07:32:14.362Z,12.13
2019-04-01T07:36:17.268Z,14.03
2019-04-01T07:40:21.514Z,12.77
2019-04-01T07:44:26.080Z,12.30
2019-04-01T07:48:30.773Z,12.30
2019-04-01T07:52:34.922Z,12.53
2019-04-01T07:56:39.243Z,12.27
2019-04-01T08:00:43.429Z,16.30
2019-04-01T08:04:47.650Z,12.20
2019-04-01T08:08:51.974Z,12.17
2019-04-01T08:12:56.589Z,10.77
2019-04-01T08:17:00.888Z,13.07
2019-04-01T08:21:05.312Z,13.23
2019-04-01T08:25:09.554Z,13.07
2019-04-01T08:29:13.878Z,13.93
2019-04-01T08:33:18.112Z,15.20
2019-04-01T08:37:22.365Z,12.67
2019-04-01T08:41:26.581Z,12.20
2019-04-01T08:45:30.832Z,12.50
2019-04-01T08:49:35.133Z,12.83
2019-04-01T08:53:39.674Z,11.10
2019-04-01T08:57:43.877Z,14.10
2019-04-01T09:01:48.299Z,12.90
2019-04-01T09:05:53.056Z,14.07
2019-04-01T09:09:57.728Z,14.03
2019-04-01T09:14:02.162Z,11.53
2019-04-01T09:18:06.695Z,11.27
2019-04-01T09:22:10.938Z,13.50
2019-04-01T09:26:15.219Z,15.57
2019-04-01T09:30:19.902Z,11.07
2019-04-01T09:34:24.264Z,10.03
2019-04-01T09:38:28.477Z,12.20
2019-04-01T09:42:32.720Z,13.83
2019-04-01T09:46:36.957Z,10.63
2019-04-01T09:50:41.184Z,10.67
2019-04-01T09:54:45.414Z,13.40
2019-04-01T09:58:49.649Z,11.33
2019-04-01T10:02:53.866Z,11.07
2019-04-01T10:06:58.127Z,10.73
2019-04-01T10:11:02.314Z,10.80
2019-04-01T10:15:07.864Z,10.87
2019-04-01T10:19:12.460Z,12.67
2019-04-01T10:23:16.698Z,10.13
2019-04-01T10:27:20.887Z,11.97
2019-04-01T10:31:25.166Z,11.30
2019-04-01T10:35:29.340Z,12.23
2019-04-01T10:39:33.832Z,11.80
2019-04-01T10:43:38.078Z,10.63
2019-04-01T10:47:42.313Z,9.23
2019-04-01T10:51:46.572Z,9.27
2019-04-01T10:55:50.751Z,10.63
2019-04-01T10:59:55.033Z,8.90
2019-04-01T11:03:59.255Z,10.17
2019-04-01T11:08:03.524Z,7.77
2019-04-01T11:12:07.959Z,7.93
2019-04-01T11:16:12.125Z,12.40
2019-04-01T11:20:16.358Z,8.40
2019-04-01T11:24:20.557Z,9.17
2019-04-01T11:28:24.773Z,8.60
2019-04-01T11:32:29.121Z,9.27
2019-04-01T11:36:33.379Z,6.87
2019-04-01T11:40:38.888Z,9.17
2019-04-01T11:44:43.410Z,8.37
2019-04-01T11:48:47.638Z,10.33
2019-04-01T11:52:51.867Z,9.80
2019-04-01T11:56:56.138Z,10.47
2019-04-01T12:01:00.666Z,14.90
2019-04-01T12:05:05.214Z,8.80
2019-04-01T12:09:10.126Z,6.97
2019-04-01T12:13:14.349Z,6.97
2019-04-01T12:17:18.616Z,6.90
2019-04-01T12:21:22.992Z,6.23
2019-04-01T12:25:27.633Z,5.20
2019-04-01T12:29:31.898Z,7.47
2019-04-01T12:33:36.117Z,7.03
2019-04-01T12:37:40.399Z,7.60
2019-04-01T12:41:44.626Z,8.07
2019-04-01T12:45:49.237Z,7.00
2019-04-01T12:49:53.603Z,4.67
2019-04-01T12:53:57.931Z,7.93
2019-04-01T12:58:02.886Z,6.67
2019-04-01T13:02:07.490Z,8.17
2019-04-01T13:06:11.735Z,4.97
2019-04-01T13:10:18.215Z,9.37
2019-04-01T13:14:22.538Z,5.17
2019-04-01T13:18:26.704Z,7.10
2019-04-01T13:22:30.941Z,5.33
2019-04-01T13:26:35.164Z,5.27
2019-04-01T13:30:39.764Z,3.93
2019-04-01T13:34:44.047Z,5.13
2019-04-01T13:38:48.228Z,4.70
2019-04-01T13:42:52.445Z,5.97
2019-04-01T13:46:56.657Z,6.97
2019-04-01T13:51:01.338Z,5.83
2019-04-01T13:55:06.290Z,3.93
2019-04-01T13:59:12.358Z,6.03
2019-04-01T14:03:16.520Z,6.80
2019-04-01T14:07:21.456Z,5.13
2019-04-01T14:11:25.984Z,5.27
2019-04-01T14:15:30.564Z,5.10
2019-04-01T14:19:34.800Z,6.97
2019-04-01T14:23:38.990Z,6.07
2019-04-01T14:27:43.228Z,6.27
2019-04-01T14:31:47.482Z,6.60
2019-04-01T14:35:51.717Z,8.03
2019-04-01T14:39:55.952Z,5.87
2019-04-01T14:44:00.147Z,6.53
2019-04-01T14:48:08.087Z,6.83
2019-04-01T14:52:11.340Z,7.10
2019-04-01T14:56:16.196Z,5.53
2019-04-01T15:00:20.717Z,7.47
2019-04-01T15:04:25.016Z,5.00
2019-04-01T15:08:29.863Z,5.47
2019-04-01T15:12:34.047Z,6.93
2019-04-01T15:16:38.696Z,5.40
2019-04-01T15:20:43.084Z,6.13
2019-04-01T15:24:48.358Z,8.67
2019-04-01T15:28:52.803Z,6.30
2019-04-01T15:32:57.700Z,8.40
2019-04-01T15:37:02.038Z,6.70
2019-04-01T15:41:06.491Z,7.27
2019-04-01T15:45:10.782Z,5.23
2019-04-01T15:49:15.004Z,7.53
2019-04-01T15:53:23.484Z,5.30
2019-04-01T15:57:27.637Z,4.43
2019-04-01T16:01:31.847Z,7.30
2019-04-01T16:05:36.090Z,4.77
2019-04-01T16:09:40.681Z,5.30
2019-04-01T16:13:45.209Z,4.70
2019-04-01T16:17:49.624Z,4.63
2019-04-01T16:21:53.911Z,7.70
2019-04-01T16:25:58.140Z,4.03
2019-04-01T16:30:03.674Z,4.57
2019-04-01T16:34:07.942Z,4.30
2019-04-01T16:38:12.286Z,5.20
2019-04-01T16:42:16.515Z,4.07
2019-04-01T16:46:21.146Z,2.60
2019-04-01T16:50:28.462Z,4.43
2019-04-01T16:54:31.577Z,5.03
2019-04-01T16:58:35.880Z,3.33
2019-04-01T17:02:40.388Z,3.13
2019-04-01T17:06:44.752Z,4.57
2019-04-01T17:10:49.425Z,5.23
2019-04-01T17:14:53.658Z,7.73
2019-04-01T17:18:57.945Z,4.53
2019-04-01T17:23:02.194Z,5.07
2019-04-01T17:27:11.499Z,3.87
2019-04-01T17:31:15.722Z,7.57
2019-04-01T17:35:19.925Z,4.10
2019-04-01T17:39:24.167Z,6.17
2019-04-01T17:43:28.396Z,3.30
2019-04-01T17:47:32.782Z,4.73
2019-04-01T17:51:36.973Z,6.67
2019-04-01T17:55:41.258Z,5.37
2019-04-01T17:59:45.423Z,7.47
2019-04-01T18:03:49.681Z,5.37
2019-04-01T18:07:54.032Z,4.57
2019-04-01T18:11:58.612Z,2.93
2019-04-01T18:16:02.837Z,3.97
2019-04-01T18:20:07.097Z,5.53
2019-04-01T18:24:11.374Z,3.73
2019-04-01T18:28:15.663Z,2.40
2019-04-01T18:32:19.909Z,3.03
2019-04-01T18:36:24.131Z,3.67
2019-04-01T18:40:33.326Z,6.60
2019-04-01T18:44:34.314Z,2.80
2019-04-01T18:48:38.849Z,4.07
2019-04-01T18:52:43.083Z,4.73
2019-04-01T18:56:47.791Z,3.10
2019-04-01T19:00:52.186Z,4.83
2019-04-01T19:04:56.663Z,7.13
2019-04-01T19:09:09.250Z,7.83
2019-04-01T19:13:12.186Z,3.47
2019-04-01T19:17:14.458Z,4.67
2019-04-01T19:21:19.505Z,5.67
2019-04-01T19:25:25.774Z,4.50
2019-04-01T19:29:30.426Z,4.27
2019-04-01T19:33:34.662Z,2.70
2019-04-01T19:37:38.982Z,3.37
2019-04-01T19:41:43.152Z,4.80
2019-04-01T19:45:50.470Z,4.07
2019-04-01T19:49:53.296Z,2.90
2019-04-01T19:53:57.508Z,4.73
2019-04-01T19:58:04.955Z,4.37
2019-04-01T20:02:09.715Z,4.57
2019-04-01T20:06:14.164Z,3.03
2019-04-01T20:10:18.571Z,2.90
2019-04-01T20:14:22.748Z,3.37
2019-04-01T20:18:26.942Z,2.87
2019-04-01T20:22:31.255Z,3.83
2019-04-01T20:26:35.472Z,4.13
2019-04-01T20:30:42.504Z,2.13
2019-04-01T20:34:56.484Z,3.27
2019-04-01T20:38:51.562Z,2.40
2019-04-01T20:42:55.779Z,3.00
2019-04-01T20:46:59.970Z,2.47
2019-04-01T20:51:04.399Z,2.70
2019-04-01T20:55:09.069Z,3.37
2019-04-01T20:59:13.494Z,3.77
2019-04-01T21:03:17.848Z,4.27
2019-04-01T21:07:22.090Z,3.40
2019-04-01T21:11:26.310Z,2.97
2019-04-01T21:15:30.692Z,2.70
2019-04-01T21:19:35.035Z,2.33
2019-04-01T21:23:39.589Z,3.03
2019-04-01T21:27:43.828Z,3.60
2019-04-01T21:31:48.146Z,7.23
2019-04-01T21:35:52.768Z,3.57
2019-04-01T21:39:56.989Z,3.40
2019-04-01T21:44:01.181Z,4.40
2019-04-01T21:48:06.537Z,3.70
2019-04-01T21:52:11.072Z,4.50
2019-04-01T21:56:15.319Z,3.77
2019-04-01T22:00:30.327Z,4.63
2019-04-01T22:04:34.680Z,4.97
2019-04-01T22:08:39.011Z,3.20
2019-04-01T22:12:43.178Z,3.47
2019-04-01T22:16:48.191Z,4.70
2019-04-01T22:20:52.709Z,2.87
2019-04-01T22:24:57.240Z,3.60
2019-04-01T22:29:01.417Z,3.87
2019-04-01T22:33:05.668Z,3.97
2019-04-01T22:37:09.875Z,4.10
2019-04-01T22:41:14.096Z,2.33
2019-04-01T22:45:18.376Z,4.23
2019-04-01T22:49:22.560Z,5.70
2019-04-01T22:53:26.794Z,3.83
2019-04-01T22:57:31.054Z,3.67
2019-04-01T23:01:35.280Z,2.73
2019-04-01T23:05:39.866Z,4.13
2019-04-01T23:09:44.073Z,3.50
2019-04-01T23:13:48.415Z,3.97
2019-04-01T23:17:52.933Z,3.53
2019-04-01T23:21:57.158Z,2.33
2019-04-01T23:26:01.332Z,3.17
2019-04-01T23:30:08.191Z,3.60
2019-04-01T23:34:13.223Z,4.40
2019-04-01T23:38:18.307Z,3.17
2019-04-01T23:42:22.519Z,6.87
2019-04-01T23:46:26.731Z,3.47
2019-04-01T23:50:31.034Z,3.37
2019-04-01T23:54:35.250Z,3.80
2019-04-01T23:58:39.501Z,6.03
